createdAt,value
2022-12-13T00:00:35.531Z,97609.75
2022-12-13T00:03:40.223Z,97601.69
2022-12-13T00:06:47.403Z,97590.75
2022-12-13T00:09:52.486Z,97592.34
2022-12-13T00:12:57.300Z,97585.50
2022-12-13T00:16:03.505Z,97602.56
2022-12-13T00:19:08.314Z,97591.72
2022-12-13T00:22:14.864Z,97595.69
2022-12-13T00:25:21.608Z,97596.72
2022-12-13T00:28:26.344Z,97604.13
2022-12-13T00:34:56.767Z,97592.00
2022-12-13T00:38:05.115Z,97589.19
2022-12-13T00:41:15.119Z,97596.22
2022-12-13T00:44:21.088Z,97591.00
2022-12-13T00:47:25.997Z,97591.81
2022-12-13T00:50:31.268Z,97588.50
2022-12-13T00:53:39.944Z,97583.06
2022-12-13T00:56:44.961Z,97574.22
2022-12-13T00:59:50.494Z,97563.44
2022-12-13T01:02:58.496Z,97552.34
2022-12-13T01:06:15.005Z,97551.50
2022-12-13T01:09:40.506Z,97561.91
2022-12-13T01:12:45.472Z,97558.31
2022-12-13T01:15:51.636Z,97554.06
2022-12-13T01:18:56.527Z,97553.69
2022-12-13T01:22:02.624Z,97557.97
2022-12-13T01:25:09.063Z,97562.81
2022-12-13T01:28:13.808Z,97570.41
2022-12-13T01:31:22.235Z,97574.81
2022-12-13T01:34:28.188Z,97566.94
2022-12-13T01:37:33.127Z,97568.94
2022-12-13T01:40:47.545Z,97558.84
2022-12-13T01:44:03.428Z,97554.69
2022-12-13T01:47:09.010Z,97559.16
2022-12-13T01:50:17.871Z,97558.09
2022-12-13T01:53:27.016Z,97556.88
2022-12-13T01:56:38.579Z,97553.91
2022-12-13T01:59:44.025Z,97558.03
2022-12-13T02:02:50.746Z,97555.69
2022-12-13T02:06:02.052Z,97551.22
2022-12-13T02:09:09.253Z,97546.41
2022-12-13T02:12:15.990Z,97537.78
2022-12-13T02:15:22.733Z,97550.38
2022-12-13T02:18:40.242Z,97540.25
2022-12-13T02:21:56.234Z,97534.84
2022-12-13T02:25:23.024Z,97534.63
2022-12-13T02:28:52.726Z,97529.59
2022-12-13T02:32:06.832Z,97530.56
2022-12-13T02:35:19.054Z,97530.41
2022-12-13T02:38:31.360Z,97525.19
2022-12-13T02:41:39.587Z,97535.63
2022-12-13T02:44:49.764Z,97528.34
2022-12-13T02:47:59.890Z,97531.41
2022-12-13T02:51:07.581Z,97524.38
2022-12-13T02:54:13.118Z,97526.41
2022-12-13T02:57:36.175Z,97524.59
2022-12-13T03:00:51.273Z,97526.25
2022-12-13T03:04:09.001Z,97525.00
2022-12-13T03:07:22.883Z,97517.59
2022-12-13T03:10:34.815Z,97515.84
2022-12-13T03:13:51.582Z,97515.84
2022-12-13T03:16:58.558Z,97503.09
2022-12-13T03:20:22.787Z,97490.84
2022-12-13T03:23:28.713Z,97497.25
2022-12-13T03:26:33.692Z,97486.78
2022-12-13T03:29:38.478Z,97492.44
2022-12-13T03:32:43.350Z,97486.03
2022-12-13T03:35:49.469Z,97494.66
2022-12-13T03:38:55.867Z,97491.00
2022-12-13T03:42:00.779Z,97489.19
2022-12-13T03:45:06.369Z,97483.41
2022-12-13T03:48:11.577Z,97491.41
2022-12-13T03:51:17.841Z,97497.66
2022-12-13T03:54:22.952Z,97484.94
2022-12-13T03:57:29.496Z,97486.50
2022-12-13T04:00:34.220Z,97479.88
2022-12-13T04:03:40.043Z,97472.44
2022-12-13T04:06:46.414Z,97472.03
2022-12-13T04:09:52.583Z,97478.81
2022-12-13T04:13:14.536Z,97481.03
2022-12-13T04:16:19.662Z,97477.44
2022-12-13T04:19:24.436Z,97474.56
2022-12-13T04:22:30.608Z,97476.56
2022-12-13T04:25:34.497Z,97474.06
2022-12-13T04:28:38.878Z,97475.31
2022-12-13T04:31:43.836Z,97481.59
2022-12-13T04:34:48.434Z,97476.19
2022-12-13T04:37:54.681Z,97467.34
2022-12-13T04:41:07.931Z,97466.56
2022-12-13T04:44:27.606Z,97470.22
2022-12-13T04:47:35.566Z,97472.84
2022-12-13T04:50:40.229Z,97464.81
2022-12-13T04:53:46.736Z,97467.00
2022-12-13T04:56:51.793Z,97466.56
2022-12-13T04:59:59.209Z,97471.28
2022-12-13T05:03:04.537Z,97471.44
2022-12-13T05:06:26.573Z,97474.44
2022-12-13T05:09:34.186Z,97468.25
2022-12-13T05:12:39.326Z,97469.25
2022-12-13T05:15:44.193Z,97468.50
2022-12-13T05:18:48.680Z,97475.72
2022-12-13T05:21:53.257Z,97467.81
2022-12-13T05:24:59.808Z,97464.63
2022-12-13T05:28:08.924Z,97471.66
2022-12-13T05:31:29.320Z,97459.41
2022-12-13T05:34:35.370Z,97460.41
2022-12-13T05:37:40.470Z,97456.44
2022-12-13T05:40:46.946Z,97453.75
2022-12-13T05:43:51.742Z,97454.66
2022-12-13T05:46:56.403Z,97449.66
2022-12-13T05:50:01.270Z,97443.31
2022-12-13T05:53:06.361Z,97446.19
2022-12-13T05:56:13.232Z,97453.03
2022-12-13T05:59:27.642Z,97445.81
2022-12-13T06:02:32.207Z,97451.16
2022-12-13T06:05:37.582Z,97443.88
2022-12-13T06:08:43.350Z,97444.63
2022-12-13T06:11:49.836Z,97446.38
2022-12-13T06:14:54.616Z,97450.59
2022-12-13T06:18:06.501Z,97449.78
2022-12-13T06:21:12.380Z,97455.81
2022-12-13T06:24:18.262Z,97454.78
2022-12-13T06:27:24.958Z,97448.75
2022-12-13T06:30:30.315Z,97448.53
2022-12-13T06:33:37.087Z,97444.91
2022-12-13T06:36:41.576Z,97442.63
2022-12-13T06:39:45.998Z,97447.66
2022-12-13T06:42:52.285Z,97453.13
2022-12-13T06:45:57.153Z,97439.94
2022-12-13T06:49:01.832Z,97440.06
2022-12-13T06:52:06.537Z,97453.75
2022-12-13T06:55:11.776Z,97457.59
2022-12-13T06:58:17.815Z,97463.81
2022-12-13T07:01:24.589Z,97457.16
2022-12-13T07:04:29.454Z,97466.81
2022-12-13T07:07:33.516Z,97465.44
2022-12-13T07:10:36.211Z,97468.25
2022-12-13T07:13:40.192Z,97474.78
2022-12-13T07:16:42.873Z,97473.97
2022-12-13T07:19:45.881Z,97480.81
2022-12-13T07:22:58.308Z,97486.56
2022-12-13T07:26:02.572Z,97480.22
2022-12-13T07:29:06.576Z,97467.78
2022-12-13T07:32:09.246Z,97466.84
2022-12-13T07:35:12.066Z,97476.28
2022-12-13T07:38:14.723Z,97479.13
2022-12-13T07:41:23.331Z,97480.38
2022-12-13T07:44:28.268Z,97485.16
2022-12-13T07:47:31.724Z,97485.41
2022-12-13T07:50:37.532Z,97488.69
2022-12-13T07:53:41.279Z,97499.22
2022-12-13T07:56:43.933Z,97502.28
2022-12-13T07:59:48.024Z,97500.69
2022-12-13T08:02:50.699Z,97504.75
2022-12-13T08:06:00.162Z,97499.56
2022-12-13T08:09:03.031Z,97493.53
2022-12-13T08:12:06.303Z,97497.81
2022-12-13T08:15:14.147Z,97503.09
2022-12-13T08:18:17.068Z,97500.91
2022-12-13T08:21:52.512Z,97496.88
2022-12-13T08:24:42.336Z,97497.13
2022-12-13T08:27:45.025Z,97498.56
2022-12-13T08:30:50.195Z,97493.53
2022-12-13T08:33:52.816Z,97498.94
2022-12-13T08:37:02.286Z,97497.53
2022-12-13T08:40:07.004Z,97494.13
2022-12-13T08:43:09.680Z,97500.59
2022-12-13T08:46:13.865Z,97493.13
2022-12-13T08:49:16.602Z,97499.78
2022-12-13T08:52:19.408Z,97495.16
2022-12-13T08:55:31.308Z,97496.56
2022-12-13T08:58:35.335Z,97499.97
2022-12-13T09:01:39.902Z,97487.50
2022-12-13T09:04:43.496Z,97486.91
2022-12-13T09:07:46.169Z,97492.72
2022-12-13T09:10:59.177Z,97498.78
2022-12-13T09:14:02.487Z,97490.72
2022-12-13T09:17:06.988Z,97485.88
2022-12-13T09:20:28.498Z,97488.69
2022-12-13T09:23:35.638Z,97482.88
2022-12-13T09:26:38.734Z,97487.88
2022-12-13T09:29:41.648Z,97487.34
2022-12-13T09:32:49.887Z,97485.19
2022-12-13T09:35:53.242Z,97484.13
2022-12-13T09:38:58.698Z,97483.06
2022-12-13T09:42:10.434Z,97487.56
2022-12-13T09:45:22.388Z,97492.16
2022-12-13T09:48:37.224Z,97498.88
2022-12-13T09:51:45.905Z,97495.44
2022-12-13T09:54:54.357Z,97493.03
2022-12-13T09:57:57.311Z,97484.34
2022-12-13T10:01:00.403Z,97489.16
2022-12-13T10:04:04.572Z,97488.97
2022-12-13T10:07:18.020Z,97482.03
2022-12-13T10:10:21.092Z,97485.88
2022-12-13T10:13:28.728Z,97470.13
2022-12-13T10:16:41.019Z,97462.00
2022-12-13T10:19:46.556Z,97467.63
2022-12-13T10:23:15.040Z,97466.34
2022-12-13T10:26:14.758Z,97466.34
2022-12-13T10:29:26.856Z,97455.06
2022-12-13T10:32:37.733Z,97457.63
2022-12-13T10:35:42.422Z,97456.94
2022-12-13T10:38:46.898Z,97449.59
2022-12-13T10:41:49.599Z,97452.38
2022-12-13T10:45:11.435Z,97440.88
2022-12-13T10:48:22.220Z,97439.09
2022-12-13T10:51:26.379Z,97435.00
2022-12-13T10:54:38.691Z,97423.34
2022-12-13T10:57:53.334Z,97438.06
2022-12-13T11:01:10.204Z,97436.03
2022-12-13T11:04:27.609Z,97437.97
2022-12-13T11:07:34.343Z,97435.63
2022-12-13T11:10:37.840Z,97435.13
2022-12-13T11:13:46.319Z,97430.03
2022-12-13T11:16:52.891Z,97428.91
2022-12-13T11:19:58.137Z,97423.88
2022-12-13T11:23:05.727Z,97418.66
2022-12-13T11:26:12.422Z,97408.31
2022-12-13T11:29:47.655Z,97396.50
2022-12-13T11:33:16.052Z,97406.13
2022-12-13T11:36:29.632Z,97398.81
2022-12-13T11:39:37.899Z,97396.94
2022-12-13T11:42:46.630Z,97385.03
2022-12-13T11:45:55.111Z,97383.19
2022-12-13T11:49:01.387Z,97377.78
2022-12-13T11:52:12.495Z,97396.66
2022-12-13T11:55:21.135Z,97396.44
2022-12-13T11:59:02.490Z,97391.50
2022-12-13T12:02:04.809Z,97388.19
2022-12-13T12:05:24.040Z,97384.72
2022-12-13T12:08:36.333Z,97382.41
2022-12-13T12:11:46.751Z,97383.56
2022-12-13T12:14:57.556Z,97375.09
2022-12-13T12:18:14.350Z,97373.59
2022-12-13T12:21:49.492Z,97365.34
2022-12-13T12:25:08.291Z,97369.38
2022-12-13T12:28:22.461Z,97373.50
2022-12-13T12:31:32.220Z,97373.03
2022-12-13T12:34:46.391Z,97371.78
2022-12-13T12:37:54.769Z,97367.53
2022-12-13T12:41:19.294Z,97351.03
2022-12-13T12:44:39.678Z,97346.78
2022-12-13T12:48:46.259Z,97351.41
2022-12-13T12:51:21.916Z,97352.75
2022-12-13T12:54:44.397Z,97349.94
2022-12-13T12:58:01.635Z,97348.00
2022-12-13T13:01:25.467Z,97348.16
2022-12-13T13:04:35.644Z,97349.63
2022-12-13T13:07:44.737Z,97341.03
2022-12-13T13:10:55.175Z,97334.00
2022-12-13T13:14:08.171Z,97331.50
2022-12-13T13:17:40.603Z,97326.75
2022-12-13T13:20:44.705Z,97323.44
2022-12-13T13:23:47.811Z,97313.31
2022-12-13T13:26:53.464Z,97323.84
2022-12-13T13:30:06.249Z,97301.94
2022-12-13T13:33:42.701Z,97310.38
2022-12-13T13:36:52.510Z,97304.88
2022-12-13T13:40:01.380Z,97314.84
2022-12-13T13:43:16.379Z,97319.84
2022-12-13T13:46:19.123Z,97331.44
2022-12-13T13:49:22.092Z,97326.47
2022-12-13T13:52:27.948Z,97318.84
2022-12-13T13:55:48.653Z,97334.00
2022-12-13T13:59:24.643Z,97325.88
2022-12-13T14:03:22.147Z,97325.75
2022-12-13T14:07:35.482Z,97321.34
2022-12-13T14:10:52.440Z,97327.63
2022-12-13T14:14:38.925Z,97323.72
2022-12-13T14:18:22.790Z,97331.06
2022-12-13T14:21:33.500Z,97341.28
2022-12-13T14:24:47.108Z,97330.94
2022-12-13T14:27:54.501Z,97330.59
2022-12-13T14:30:57.870Z,97321.69
2022-12-13T14:34:03.032Z,97320.78
2022-12-13T14:37:07.625Z,97325.09
2022-12-13T14:40:28.526Z,97319.97
2022-12-13T14:43:33.127Z,97322.13
2022-12-13T14:46:36.013Z,97324.09
2022-12-13T14:49:41.973Z,97318.34
2022-12-13T14:52:51.731Z,97309.53
2022-12-13T14:56:07.386Z,97314.56
2022-12-13T14:59:14.391Z,97319.25
2022-12-13T15:02:18.807Z,97319.38
2022-12-13T15:05:38.489Z,97309.66
2022-12-13T15:08:41.857Z,97305.84
2022-12-13T15:11:46.647Z,97294.16
2022-12-13T15:14:52.272Z,97295.75
2022-12-13T15:18:17.220Z,97296.56
2022-12-13T15:21:23.241Z,97291.53
2022-12-13T15:24:29.467Z,97283.63
2022-12-13T15:27:33.781Z,97289.31
2022-12-13T15:30:36.960Z,97279.13
2022-12-13T15:33:48.062Z,97280.41
2022-12-13T15:36:51.723Z,97273.97
2022-12-13T15:39:58.650Z,97268.38
2022-12-13T15:43:02.949Z,97268.13
2022-12-13T15:46:07.989Z,97269.59
2022-12-13T15:49:23.262Z,97253.56
2022-12-13T15:52:35.468Z,97261.38
2022-12-13T15:55:38.345Z,97251.63
2022-12-13T15:58:42.438Z,97246.81
2022-12-13T16:01:57.860Z,97249.69
2022-12-13T16:05:07.962Z,97252.63
2022-12-13T16:08:26.080Z,97248.50
2022-12-13T16:11:33.105Z,97243.78
2022-12-13T16:14:49.215Z,97246.16
2022-12-13T16:17:54.783Z,97244.19
2022-12-13T16:21:02.132Z,97235.13
2022-12-13T16:24:05.076Z,97233.19
2022-12-13T16:27:08.357Z,97232.25
2022-12-13T16:30:23.972Z,97232.03
2022-12-13T16:33:27.869Z,97223.63
2022-12-13T16:36:30.656Z,97231.53
2022-12-13T16:39:33.799Z,97225.22
2022-12-13T16:42:36.461Z,97220.84
2022-12-13T16:45:43.466Z,97219.59
2022-12-13T16:48:46.095Z,97235.47
2022-12-13T16:51:49.401Z,97240.78
2022-12-13T16:54:52.725Z,97238.38
2022-12-13T16:57:59.852Z,97232.78
2022-12-13T17:01:09.667Z,97232.41
2022-12-13T17:04:19.247Z,97224.59
2022-12-13T17:07:23.576Z,97225.25
2022-12-13T17:10:26.230Z,97226.94
2022-12-13T17:13:29.677Z,97230.53
2022-12-13T17:16:34.097Z,97233.53
2022-12-13T17:19:37.870Z,97234.69
2022-12-13T17:22:40.591Z,97234.69
2022-12-13T17:25:43.339Z,97229.44
2022-12-13T17:28:46.119Z,97227.47
2022-12-13T17:31:50.170Z,97227.81
2022-12-13T17:34:53.304Z,97221.19
2022-12-13T17:37:56.063Z,97230.25
2022-12-13T17:41:00.600Z,97229.28
2022-12-13T17:44:03.502Z,97209.34
2022-12-13T17:47:07.934Z,97208.41
2022-12-13T17:50:10.876Z,97209.22
2022-12-13T17:53:13.615Z,97207.41
2022-12-13T17:56:17.329Z,97211.84
2022-12-13T17:59:20.240Z,97211.25
2022-12-13T18:02:24.563Z,97210.75
2022-12-13T18:05:27.266Z,97221.13
2022-12-13T18:08:29.957Z,97227.19
2022-12-13T18:11:34.001Z,97208.78
2022-12-13T18:14:37.248Z,97201.41
2022-12-13T18:18:10.247Z,97196.34
2022-12-13T18:21:05.741Z,97188.69
2022-12-13T18:24:09.051Z,97201.25
2022-12-13T18:27:11.651Z,97194.03
2022-12-13T18:30:14.731Z,97196.66
2022-12-13T18:33:18.719Z,97202.50
2022-12-13T18:36:23.257Z,97204.19
2022-12-13T18:39:25.912Z,97200.97
2022-12-13T18:42:28.574Z,97184.78
2022-12-13T18:45:31.999Z,97200.25
2022-12-13T18:48:36.055Z,97209.06
2022-12-13T18:51:38.751Z,97198.34
2022-12-13T18:54:41.399Z,97190.91
2022-12-13T18:57:44.038Z,97199.66
2022-12-13T19:00:46.674Z,97194.75
2022-12-13T19:03:50.776Z,97177.91
2022-12-13T19:06:53.583Z,97171.19
2022-12-13T19:09:56.238Z,97155.50
2022-12-13T19:12:58.883Z,97144.94
2022-12-13T19:16:07.826Z,97141.06
2022-12-13T19:19:11.924Z,97130.94
2022-12-13T19:22:14.895Z,97123.28
2022-12-13T19:25:20.437Z,97115.63
2022-12-13T19:28:23.084Z,97108.56
2022-12-13T19:31:31.055Z,97109.78
2022-12-13T19:34:36.439Z,97120.88
2022-12-13T19:37:39.527Z,97112.41
2022-12-13T19:40:43.474Z,97115.03
2022-12-13T19:43:52.280Z,97110.78
2022-12-13T19:46:55.866Z,97120.28
2022-12-13T19:49:59.927Z,97116.22
2022-12-13T19:53:02.879Z,97115.47
2022-12-13T19:56:09.655Z,97109.50
2022-12-13T19:59:12.335Z,97116.28
2022-12-13T20:02:15.918Z,97115.03
2022-12-13T20:05:20.555Z,97114.22
2022-12-13T20:08:23.256Z,97098.94
2022-12-13T20:11:25.934Z,97108.00
2022-12-13T20:14:29.028Z,97096.03
2022-12-13T20:17:32.409Z,97094.84
2022-12-13T20:21:02.503Z,97083.56
2022-12-13T20:23:59.586Z,97088.66
2022-12-13T20:27:02.303Z,97085.38
2022-12-13T20:30:06.384Z,97079.63
2022-12-13T20:33:09.291Z,97081.25
2022-12-13T20:36:24.188Z,97077.88
2022-12-13T20:39:28.085Z,97079.00
2022-12-13T20:42:31.393Z,97098.31
2022-12-13T20:45:33.999Z,97097.66
2022-12-13T20:48:37.380Z,97087.84
2022-12-13T20:51:42.243Z,97090.19
2022-12-13T20:54:45.288Z,97079.44
2022-12-13T20:57:47.967Z,97077.97
2022-12-13T21:00:50.739Z,97082.00
2022-12-13T21:03:54.695Z,97072.69
2022-12-13T21:06:58.703Z,97076.41
2022-12-13T21:10:01.295Z,97077.59
2022-12-13T21:13:03.985Z,97066.06
2022-12-13T21:16:07.040Z,97075.31
2022-12-13T21:19:14.136Z,97074.94
2022-12-13T21:22:19.036Z,97084.22
2022-12-13T21:25:21.677Z,97064.94
2022-12-13T21:28:25.084Z,97060.72
2022-12-13T21:31:29.669Z,97052.34
2022-12-13T21:34:32.949Z,97050.50
2022-12-13T21:37:37.045Z,97042.97
2022-12-13T21:40:45.386Z,97042.38
2022-12-13T21:43:48.449Z,97041.78
2022-12-13T21:50:14.226Z,97033.97
2022-12-13T21:53:18.414Z,97035.06
2022-12-13T21:56:41.162Z,97027.31
2022-12-13T21:59:43.907Z,97028.41
2022-12-13T22:02:46.628Z,97028.94
2022-12-13T22:05:49.276Z,97011.81
2022-12-13T22:08:53.288Z,97009.78
2022-12-13T22:11:55.994Z,97002.00
2022-12-13T22:14:58.737Z,97008.00
2022-12-13T22:18:01.383Z,97004.44
2022-12-13T22:21:04.149Z,96990.41
2022-12-13T22:24:09.007Z,96989.72
2022-12-13T22:27:11.631Z,96984.81
2022-12-13T22:30:14.483Z,96982.16
2022-12-13T22:33:17.399Z,96990.63
2022-12-13T22:36:20.023Z,96988.38
2022-12-13T22:39:24.828Z,96981.19
2022-12-13T22:42:27.639Z,96970.09
2022-12-13T22:45:30.325Z,96969.50
2022-12-13T22:48:33.412Z,96976.09
2022-12-13T22:51:36.833Z,96973.47
2022-12-13T22:54:40.803Z,96965.50
2022-12-13T22:57:43.770Z,96954.53
2022-12-13T23:00:51.465Z,96945.63
2022-12-13T23:03:54.683Z,96953.25
2022-12-13T23:06:57.324Z,96939.88
2022-12-13T23:10:01.391Z,96948.91
2022-12-13T23:13:03.157Z,96954.50
2022-12-13T23:16:06.873Z,96954.16
2022-12-13T23:19:40.307Z,96945.03
2022-12-13T23:22:34.843Z,96947.19
2022-12-13T23:25:38.841Z,96943.31
2022-12-13T23:28:42.701Z,96932.81
2022-12-13T23:31:48.548Z,96932.16
2022-12-13T23:34:52.261Z,96930.88
2022-12-13T23:37:54.927Z,96931.91
2022-12-13T23:41:08.767Z,96938.88
2022-12-13T23:44:11.529Z,96935.78
2022-12-13T23:47:14.498Z,96935.13
2022-12-13T23:50:18.058Z,96929.75
2022-12-13T23:53:20.892Z,96930.19
2022-12-13T23:56:25.222Z,96935.09
2022-12-13T23:59:28.429Z,96932.56
